Impacts TAF Board
For situational awareness. Not to be used for flight planning purposes.
IDs:

KCLE - Cleveland/Hopkins In, OH, US

Issued at 1742 UTC 18 Jun 2019
Updated at 1838 UTC 18 Jun 2019
Potential Impact None Slight Moderate High
Time1751Z 18/19Z 18/20Z 18/21Z 18/22Z 18/23Z 19/00Z 19/01Z 19/02Z 19/03Z 19/04Z 19/05Z 19/06Z 19/07Z>>
Type OBS PRVL PRVL PRVL PRVL PRVL PRVL PRVL PRVL PRVL PRVL PRVL PRVL PRVL
VIS 10 >6 >6 >6 >6 >6 >6 >6 >6 >6 >6 >6 >6 >6
CIG -- 35 35 35 35 35 35 35 35 -- -- -- -- --
Cover SCT BKN BKN BKN BKN BKN BKN BKN BKN FEW FEW FEW FEW FEW
FltCat VFR VFR VFR VFR VFR VFR VFR VFR VFR VFR VFR VFR VFR VFR
WX -- -- -- -- -- -- -- -- -- -- -- -- -- --
WDir 360 360 360 360 360 360 360 360 360 VRB VRB VRB VRB VRB
WSpd 7 6 6 6 6 6 6 6 6 0 0 0 0 0
WGst -- -- -- -- -- -- -- -- -- -- -- -- -- --
Raw TAF
KCLE 181742Z 1818/1924 36006KT P6SM BKN035
  FM190300 00000KT P6SM FEW200
  FM191200 00000KT P6SM FEW060
  FM191400 00000KT P6SM SCT045
  FM191700 01005KT P6SM SCT110


Raw METAR
KCLE 181751Z 36007KT 10SM SCT033 SCT250 24/17 A2996 RMK AO2 SLP141 T02390167 10244 20178 56011 $
KCLE 181651Z 03004KT 10SM FEW011 FEW180 SCT250 24/16 A2996 RMK AO2 SLP143 T02390161 $
KCLE 181551Z 03004KT 10SM FEW011 SCT180 BKN250 22/16 A2998 RMK AO2 SLP149 T02170156 $

METAR Board
Radar Display
Forecast Discussion
For situational awareness. Not to be used for flight planning purposes.